Terminal Aerodrome Forecast
Issued by NWS Salt Lake City, UT

Home | Current Version | Previous Version | Text Only | Print | Product List | Glossary On
Versions: 1 2 3 4 5 6 7 8 9 10 11 12 13 14 15 16 17 18 19 20 21 22 23 24 25 26 27 28 29 30 31 32 33 34 35 36 37
000
FTUS45 KSLC 212050 AAB
TAFSLC
TAF AMD
KSLC 212050Z 2121/2224 33008KT P6SM SCT070 BKN120
     FM220300 16006KT P6SM SCT070 BKN120
     FM221700 16012KT P6SM SCT050 BKN090
     FM222000 19017G20KT P6SM SCT060 BKN090=

USA.gov is the U.S. government's official web portal to all federal, state and local government web resources and services.